Minnehaha Springs, West Virginia
Current Conditions -  °F | °C
As of 10:35 AM on Thursday 30 Oct 2014 (Local Time) from KHSP Reporting Station
Scattered Clouds Scattered Clouds  
Wind Chill:   Ceiling: Unl
Heat Index:   Visibility: 10mi
Dew Point:   Wind: 8mph
Humidity: 75%   Direction: 290°WNW
Pressure: 30.03"   Gusts: NA
Location:  38.2213°N, 80.0565°W
Report Text: KHSP 301435Z AUTO 29007KT 10SM SCT011 04/00 A3003 RMK AO2 T00420002
Loading
Personal Weather Stations






























Interactive Weather Map
Tropical Storm Tracking
New forecast layout! Learn more

10-Day Weather Forecast

Advertisements
Track Severe Weather on mobile